sensor_id;sensor_type;location;lat;lon;timestamp;temperature;humidity
20524;DHT22;10420;48.542;12.270;2023-04-25T00:03:03;6.00;99.90
20524;DHT22;10420;48.542;12.270;2023-04-25T00:08:05;6.10;99.90
20524;DHT22;10420;48.542;12.270;2023-04-25T00:13:06;6.10;99.90
20524;DHT22;10420;48.542;12.270;2023-04-25T00:18:08;6.20;99.90
20524;DHT22;10420;48.542;12.270;2023-04-25T00:23:09;6.20;99.90
20524;DHT22;10420;48.542;12.270;2023-04-25T00:28:11;6.20;99.90
20524;DHT22;10420;48.542;12.270;2023-04-25T00:33:12;6.20;99.90
20524;DHT22;10420;48.542;12.270;2023-04-25T00:38:12;5.90;99.90
20524;DHT22;10420;48.542;12.270;2023-04-25T00:43:13;5.90;99.90
20524;DHT22;10420;48.542;12.270;2023-04-25T00:48:14;6.00;99.90
20524;DHT22;10420;48.542;12.270;2023-04-25T00:53:15;6.10;99.90
20524;DHT22;10420;48.542;12.270;2023-04-25T00:58:22;6.20;99.90
20524;DHT22;10420;48.542;12.270;2023-04-25T01:03:22;6.20;99.90
20524;DHT22;10420;48.542;12.270;2023-04-25T01:08:24;6.20;99.90
20524;DHT22;10420;48.542;12.270;2023-04-25T01:13:27;6.20;99.90
20524;DHT22;10420;48.542;12.270;2023-04-25T01:18:28;6.10;99.90
20524;DHT22;10420;48.542;12.270;2023-04-25T01:23:29;6.30;99.90
20524;DHT22;10420;48.542;12.270;2023-04-25T01:28:30;6.00;99.90
20524;DHT22;10420;48.542;12.270;2023-04-25T01:33:30;6.10;99.90
20524;DHT22;10420;48.542;12.270;2023-04-25T01:38:31;6.20;99.90
20524;DHT22;10420;48.542;12.270;2023-04-25T01:43:32;5.90;99.90
20524;DHT22;10420;48.542;12.270;2023-04-25T01:48:33;5.80;99.90
20524;DHT22;10420;48.542;12.270;2023-04-25T01:53:34;6.00;99.90
20524;DHT22;10420;48.542;12.270;2023-04-25T01:58:34;6.00;99.90
20524;DHT22;10420;48.542;12.270;2023-04-25T02:03:36;6.10;99.90
20524;DHT22;10420;48.542;12.270;2023-04-25T02:08:38;6.10;99.90
20524;DHT22;10420;48.542;12.270;2023-04-25T02:13:38;6.10;99.90
20524;DHT22;10420;48.542;12.270;2023-04-25T02:18:39;6.10;99.90
20524;DHT22;10420;48.542;12.270;2023-04-25T02:23:40;6.20;99.90
20524;DHT22;10420;48.542;12.270;2023-04-25T02:28:41;6.00;99.90
20524;DHT22;10420;48.542;12.270;2023-04-25T02:33:42;5.90;99.90
20524;DHT22;10420;48.542;12.270;2023-04-25T02:38:42;5.70;99.90
20524;DHT22;10420;48.542;12.270;2023-04-25T02:43:43;5.70;99.90
20524;DHT22;10420;48.542;12.270;2023-04-25T02:48:44;5.40;99.90
20524;DHT22;10420;48.542;12.270;2023-04-25T02:53:44;5.30;99.90
20524;DHT22;10420;48.542;12.270;2023-04-25T02:58:45;5.30;99.90
20524;DHT22;10420;48.542;12.270;2023-04-25T03:03:46;5.30;99.90
20524;DHT22;10420;48.542;12.270;2023-04-25T03:08:46;5.30;99.90
20524;DHT22;10420;48.542;12.270;2023-04-25T03:13:47;5.40;99.90
20524;DHT22;10420;48.542;12.270;2023-04-25T03:18:48;5.50;99.90
20524;DHT22;10420;48.542;12.270;2023-04-25T03:23:50;5.60;99.90
20524;DHT22;10420;48.542;12.270;2023-04-25T03:28:50;5.70;99.90
20524;DHT22;10420;48.542;12.270;2023-04-25T03:33:51;5.70;99.90
20524;DHT22;10420;48.542;12.270;2023-04-25T03:38:52;5.80;99.90
20524;DHT22;10420;48.542;12.270;2023-04-25T03:43:52;5.80;99.90
20524;DHT22;10420;48.542;12.270;2023-04-25T03:48:53;5.80;99.90
20524;DHT22;10420;48.542;12.270;2023-04-25T03:53:53;5.80;99.90
20524;DHT22;10420;48.542;12.270;2023-04-25T03:58:54;5.90;99.90
20524;DHT22;10420;48.542;12.270;2023-04-25T04:03:55;5.90;99.90
20524;DHT22;10420;48.542;12.270;2023-04-25T04:08:55;5.90;99.90
20524;DHT22;10420;48.542;12.270;2023-04-25T04:13:57;6.00;99.90
20524;DHT22;10420;48.542;12.270;2023-04-25T04:18:57;6.00;99.90
20524;DHT22;10420;48.542;12.270;2023-04-25T04:23:58;5.90;99.90
20524;DHT22;10420;48.542;12.270;2023-04-25T04:29:00;5.90;99.90
20524;DHT22;10420;48.542;12.270;2023-04-25T04:34:01;6.10;99.90
20524;DHT22;10420;48.542;12.270;2023-04-25T04:39:02;6.30;99.90
20524;DHT22;10420;48.542;12.270;2023-04-25T04:44:04;6.60;99.90
20524;DHT22;10420;48.542;12.270;2023-04-25T04:49:08;6.80;99.90
20524;DHT22;10420;48.542;12.270;2023-04-25T04:54:08;7.10;99.90
20524;DHT22;10420;48.542;12.270;2023-04-25T04:59:09;7.40;99.90
20524;DHT22;10420;48.542;12.270;2023-04-25T05:04:10;7.50;99.90
20524;DHT22;10420;48.542;12.270;2023-04-25T05:09:11;7.50;99.90
20524;DHT22;10420;48.542;12.270;2023-04-25T05:14:11;7.70;99.90
20524;DHT22;10420;48.542;12.270;2023-04-25T05:19:12;8.10;99.90
20524;DHT22;10420;48.542;12.270;2023-04-25T05:24:13;10.30;99.90
20524;DHT22;10420;48.542;12.270;2023-04-25T05:29:14;11.10;99.90
20524;DHT22;10420;48.542;12.270;2023-04-25T05:34:15;13.20;99.90
20524;DHT22;10420;48.542;12.270;2023-04-25T05:39:17;13.80;99.90
20524;DHT22;10420;48.542;12.270;2023-04-25T05:44:17;12.30;99.90
20524;DHT22;10420;48.542;12.270;2023-04-25T05:49:18;10.60;99.90
20524;DHT22;10420;48.542;12.270;2023-04-25T05:54:19;9.90;99.90
20524;DHT22;10420;48.542;12.270;2023-04-25T05:59:19;10.20;99.90
20524;DHT22;10420;48.542;12.270;2023-04-25T06:04:20;10.50;99.90
20524;DHT22;10420;48.542;12.270;2023-04-25T06:09:21;11.30;99.90
20524;DHT22;10420;48.542;12.270;2023-04-25T06:14:21;16.40;99.90
20524;DHT22;10420;48.542;12.270;2023-04-25T06:19:22;17.80;99.90
20524;DHT22;10420;48.542;12.270;2023-04-25T06:24:23;17.90;99.90
20524;DHT22;10420;48.542;12.270;2023-04-25T06:29:23;18.60;99.90
20524;DHT22;10420;48.542;12.270;2023-04-25T06:34:24;16.60;99.90
20524;DHT22;10420;48.542;12.270;2023-04-25T06:39:24;17.90;99.90
20524;DHT22;10420;48.542;12.270;2023-04-25T06:44:25;18.50;99.90
20524;DHT22;10420;48.542;12.270;2023-04-25T06:49:26;16.00;99.90
20524;DHT22;10420;48.542;12.270;2023-04-25T06:54:27;14.70;99.90
20524;DHT22;10420;48.542;12.270;2023-04-25T06:59:29;13.70;99.90
20524;DHT22;10420;48.542;12.270;2023-04-25T07:04:30;16.70;99.90
20524;DHT22;10420;48.542;12.270;2023-04-25T07:09:31;16.00;99.90
20524;DHT22;10420;48.542;12.270;2023-04-25T07:14:34;14.70;99.90
20524;DHT22;10420;48.542;12.270;2023-04-25T07:19:34;14.30;99.90
20524;DHT22;10420;48.542;12.270;2023-04-25T07:24:35;14.20;99.90
20524;DHT22;10420;48.542;12.270;2023-04-25T07:29:36;12.80;99.90
20524;DHT22;10420;48.542;12.270;2023-04-25T07:34:37;11.20;99.90
20524;DHT22;10420;48.542;12.270;2023-04-25T07:39:39;10.70;99.90
20524;DHT22;10420;48.542;12.270;2023-04-25T07:44:40;10.80;99.90
20524;DHT22;10420;48.542;12.270;2023-04-25T07:49:41;11.20;99.90
20524;DHT22;10420;48.542;12.270;2023-04-25T07:54:42;11.00;99.90
20524;DHT22;10420;48.542;12.270;2023-04-25T07:59:42;11.10;99.90
20524;DHT22;10420;48.542;12.270;2023-04-25T08:04:43;12.20;99.90
20524;DHT22;10420;48.542;12.270;2023-04-25T08:09:43;12.00;99.90
20524;DHT22;10420;48.542;12.270;2023-04-25T08:14:44;11.40;99.90
20524;DHT22;10420;48.542;12.270;2023-04-25T08:19:45;11.10;99.90
20524;DHT22;10420;48.542;12.270;2023-04-25T08:24:45;11.20;99.90
20524;DHT22;10420;48.542;12.270;2023-04-25T08:29:46;11.00;99.90
20524;DHT22;10420;48.542;12.270;2023-04-25T08:34:47;10.80;99.90
20524;DHT22;10420;48.542;12.270;2023-04-25T08:39:48;10.80;99.90
20524;DHT22;10420;48.542;12.270;2023-04-25T08:44:49;11.10;99.90
20524;DHT22;10420;48.542;12.270;2023-04-25T08:49:53;11.50;99.90
20524;DHT22;10420;48.542;12.270;2023-04-25T08:54:55;13.10;99.90
20524;DHT22;10420;48.542;12.270;2023-04-25T08:59:57;17.10;99.90
20524;DHT22;10420;48.542;12.270;2023-04-25T09:04:58;18.80;99.90
20524;DHT22;10420;48.542;12.270;2023-04-25T09:09:59;18.80;99.90
20524;DHT22;10420;48.542;12.270;2023-04-25T09:15:07;18.10;99.90
20524;DHT22;10420;48.542;12.270;2023-04-25T09:20:09;16.50;99.90
20524;DHT22;10420;48.542;12.270;2023-04-25T09:25:12;16.30;99.90
20524;DHT22;10420;48.542;12.270;2023-04-25T09:30:16;16.30;99.90
20524;DHT22;10420;48.542;12.270;2023-04-25T09:35:26;16.40;99.90
20524;DHT22;10420;48.542;12.270;2023-04-25T09:40:26;14.30;99.90
20524;DHT22;10420;48.542;12.270;2023-04-25T09:45:29;11.50;99.90
20524;DHT22;10420;48.542;12.270;2023-04-25T09:50:32;9.70;99.90
20524;DHT22;10420;48.542;12.270;2023-04-25T09:55:34;9.20;99.90
20524;DHT22;10420;48.542;12.270;2023-04-25T10:00:35;8.50;99.90
20524;DHT22;10420;48.542;12.270;2023-04-25T10:05:35;8.90;99.90
20524;DHT22;10420;48.542;12.270;2023-04-25T10:10:40;8.70;99.90
20524;DHT22;10420;48.542;12.270;2023-04-25T10:15:41;8.80;99.90
20524;DHT22;10420;48.542;12.270;2023-04-25T10:20:42;9.30;99.90
20524;DHT22;10420;48.542;12.270;2023-04-25T10:25:43;10.40;99.90
20524;DHT22;10420;48.542;12.270;2023-04-25T10:31:00;11.30;99.90
20524;DHT22;10420;48.542;12.270;2023-04-25T10:36:18;11.90;99.90
20524;DHT22;10420;48.542;12.270;2023-04-25T10:41:20;11.10;99.90
20524;DHT22;10420;48.542;12.270;2023-04-25T10:46:26;11.20;99.90
20524;DHT22;10420;48.542;12.270;2023-04-25T10:51:28;11.50;99.90
20524;DHT22;10420;48.542;12.270;2023-04-25T10:56:37;10.40;99.90
20524;DHT22;10420;48.542;12.270;2023-04-25T11:07:09;10.70;99.90
20524;DHT22;10420;48.542;12.270;2023-04-25T11:12:11;12.90;99.90
20524;DHT22;10420;48.542;12.270;2023-04-25T11:17:15;11.70;99.90
20524;DHT22;10420;48.542;12.270;2023-04-25T11:22:15;10.50;99.90
20524;DHT22;10420;48.542;12.270;2023-04-25T11:27:16;10.30;99.90
20524;DHT22;10420;48.542;12.270;2023-04-25T11:32:17;11.10;99.90
20524;DHT22;10420;48.542;12.270;2023-04-25T11:37:18;12.50;99.90
20524;DHT22;10420;48.542;12.270;2023-04-25T11:42:19;12.40;99.90
20524;DHT22;10420;48.542;12.270;2023-04-25T11:47:20;13.10;99.90
20524;DHT22;10420;48.542;12.270;2023-04-25T11:52:21;13.30;99.90
20524;DHT22;10420;48.542;12.270;2023-04-25T11:57:21;14.00;99.90
20524;DHT22;10420;48.542;12.270;2023-04-25T12:02:25;13.10;99.90
20524;DHT22;10420;48.542;12.270;2023-04-25T12:07:29;12.80;99.90
20524;DHT22;10420;48.542;12.270;2023-04-25T12:12:34;12.80;99.90
20524;DHT22;10420;48.542;12.270;2023-04-25T12:17:35;12.50;99.90
20524;DHT22;10420;48.542;12.270;2023-04-25T12:22:40;12.30;99.90
20524;DHT22;10420;48.542;12.270;2023-04-25T12:27:40;12.60;99.90
20524;DHT22;10420;48.542;12.270;2023-04-25T12:32:42;12.50;99.90
20524;DHT22;10420;48.542;12.270;2023-04-25T12:37:43;12.70;99.90
20524;DHT22;10420;48.542;12.270;2023-04-25T12:42:43;12.70;99.90
20524;DHT22;10420;48.542;12.270;2023-04-25T12:47:44;12.70;99.90
20524;DHT22;10420;48.542;12.270;2023-04-25T12:52:45;12.40;99.90
20524;DHT22;10420;48.542;12.270;2023-04-25T12:57:46;11.60;99.90
20524;DHT22;10420;48.542;12.270;2023-04-25T13:02:47;11.90;99.90
20524;DHT22;10420;48.542;12.270;2023-04-25T13:07:47;12.20;99.90
20524;DHT22;10420;48.542;12.270;2023-04-25T13:12:48;12.50;99.90
20524;DHT22;10420;48.542;12.270;2023-04-25T13:17:48;12.80;99.90
20524;DHT22;10420;48.542;12.270;2023-04-25T13:22:49;12.80;99.90
20524;DHT22;10420;48.542;12.270;2023-04-25T13:27:50;12.80;99.90
20524;DHT22;10420;48.542;12.270;2023-04-25T13:32:50;12.70;99.90
20524;DHT22;10420;48.542;12.270;2023-04-25T13:37:51;12.40;99.90
20524;DHT22;10420;48.542;12.270;2023-04-25T13:42:52;12.00;99.90
20524;DHT22;10420;48.542;12.270;2023-04-25T13:47:53;11.50;99.90
20524;DHT22;10420;48.542;12.270;2023-04-25T13:52:53;11.50;99.90
20524;DHT22;10420;48.542;12.270;2023-04-25T13:57:54;11.50;99.90
20524;DHT22;10420;48.542;12.270;2023-04-25T14:02:55;11.50;99.90
20524;DHT22;10420;48.542;12.270;2023-04-25T14:07:55;10.60;99.90
20524;DHT22;10420;48.542;12.270;2023-04-25T14:12:56;10.10;99.90
20524;DHT22;10420;48.542;12.270;2023-04-25T14:17:57;9.90;99.90
20524;DHT22;10420;48.542;12.270;2023-04-25T14:22:57;9.80;99.90
20524;DHT22;10420;48.542;12.270;2023-04-25T14:27:58;9.70;99.90
20524;DHT22;10420;48.542;12.270;2023-04-25T14:32:59;10.00;99.90
20524;DHT22;10420;48.542;12.270;2023-04-25T14:37:59;10.20;99.90
20524;DHT22;10420;48.542;12.270;2023-04-25T14:43:00;10.20;99.90
20524;DHT22;10420;48.542;12.270;2023-04-25T14:48:01;10.20;99.90
20524;DHT22;10420;48.542;12.270;2023-04-25T14:53:02;10.20;99.90
20524;DHT22;10420;48.542;12.270;2023-04-25T14:58:02;10.40;99.90
20524;DHT22;10420;48.542;12.270;2023-04-25T15:03:04;10.40;99.90
20524;DHT22;10420;48.542;12.270;2023-04-25T15:08:04;10.30;99.90
20524;DHT22;10420;48.542;12.270;2023-04-25T15:13:05;10.40;99.90
20524;DHT22;10420;48.542;12.270;2023-04-25T15:18:06;10.40;99.90
20524;DHT22;10420;48.542;12.270;2023-04-25T15:23:06;10.50;99.90
20524;DHT22;10420;48.542;12.270;2023-04-25T15:28:07;10.20;99.90
20524;DHT22;10420;48.542;12.270;2023-04-25T15:33:07;10.50;99.90
20524;DHT22;10420;48.542;12.270;2023-04-25T15:38:08;10.50;99.90
20524;DHT22;10420;48.542;12.270;2023-04-25T15:43:10;10.40;99.90
20524;DHT22;10420;48.542;12.270;2023-04-25T15:48:15;10.50;99.90
20524;DHT22;10420;48.542;12.270;2023-04-25T15:53:15;10.20;99.90
20524;DHT22;10420;48.542;12.270;2023-04-25T15:58:16;10.00;99.90
20524;DHT22;10420;48.542;12.270;2023-04-25T16:03:17;9.80;99.90
20524;DHT22;10420;48.542;12.270;2023-04-25T16:08:17;9.70;99.90
20524;DHT22;10420;48.542;12.270;2023-04-25T16:13:18;9.70;99.90
20524;DHT22;10420;48.542;12.270;2023-04-25T16:18:18;9.70;99.90
20524;DHT22;10420;48.542;12.270;2023-04-25T16:23:19;9.50;99.90
20524;DHT22;10420;48.542;12.270;2023-04-25T16:28:20;9.50;99.90
20524;DHT22;10420;48.542;12.270;2023-04-25T16:33:20;9.70;99.90
20524;DHT22;10420;48.542;12.270;2023-04-25T16:38:21;9.70;99.90
20524;DHT22;10420;48.542;12.270;2023-04-25T16:43:21;9.70;99.90
20524;DHT22;10420;48.542;12.270;2023-04-25T16:48:22;9.80;99.90
20524;DHT22;10420;48.542;12.270;2023-04-25T16:53:24;9.70;99.90
20524;DHT22;10420;48.542;12.270;2023-04-25T16:58:24;9.60;99.90
20524;DHT22;10420;48.542;12.270;2023-04-25T17:03:26;9.30;99.90
20524;DHT22;10420;48.542;12.270;2023-04-25T17:08:27;9.40;99.90
20524;DHT22;10420;48.542;12.270;2023-04-25T17:13:28;9.30;99.90
20524;DHT22;10420;48.542;12.270;2023-04-25T17:18:31;9.20;99.90
20524;DHT22;10420;48.542;12.270;2023-04-25T17:23:33;9.20;99.90
20524;DHT22;10420;48.542;12.270;2023-04-25T17:28:33;9.00;99.90
20524;DHT22;10420;48.542;12.270;2023-04-25T17:33:34;8.90;99.90
20524;DHT22;10420;48.542;12.270;2023-04-25T17:38:34;8.70;99.90
20524;DHT22;10420;48.542;12.270;2023-04-25T17:43:36;8.60;99.90
20524;DHT22;10420;48.542;12.270;2023-04-25T17:48:36;8.40;99.90
20524;DHT22;10420;48.542;12.270;2023-04-25T17:53:37;8.40;99.90
20524;DHT22;10420;48.542;12.270;2023-04-25T17:58:38;8.40;99.90
20524;DHT22;10420;48.542;12.270;2023-04-25T18:03:38;8.30;99.90
20524;DHT22;10420;48.542;12.270;2023-04-25T18:08:41;8.30;99.90
20524;DHT22;10420;48.542;12.270;2023-04-25T18:13:41;8.20;99.90
20524;DHT22;10420;48.542;12.270;2023-04-25T18:18:42;8.20;99.90
20524;DHT22;10420;48.542;12.270;2023-04-25T18:23:46;8.10;99.90
20524;DHT22;10420;48.542;12.270;2023-04-25T18:28:46;8.00;99.90
20524;DHT22;10420;48.542;12.270;2023-04-25T18:33:47;7.80;99.90
20524;DHT22;10420;48.542;12.270;2023-04-25T18:38:48;8.00;99.90
20524;DHT22;10420;48.542;12.270;2023-04-25T18:43:54;7.90;99.90
20524;DHT22;10420;48.542;12.270;2023-04-25T18:48:59;7.90;99.90
20524;DHT22;10420;48.542;12.270;2023-04-25T18:54:00;8.10;99.90
20524;DHT22;10420;48.542;12.270;2023-04-25T18:59:01;8.00;99.90
20524;DHT22;10420;48.542;12.270;2023-04-25T19:04:02;8.10;99.90
20524;DHT22;10420;48.542;12.270;2023-04-25T19:09:03;8.10;99.90
20524;DHT22;10420;48.542;12.270;2023-04-25T19:14:04;8.10;99.90
20524;DHT22;10420;48.542;12.270;2023-04-25T19:19:05;8.10;99.90
20524;DHT22;10420;48.542;12.270;2023-04-25T19:24:07;8.10;99.90
20524;DHT22;10420;48.542;12.270;2023-04-25T19:29:12;8.10;99.90
20524;DHT22;10420;48.542;12.270;2023-04-25T19:34:13;8.00;99.90
20524;DHT22;10420;48.542;12.270;2023-04-25T19:39:14;8.00;99.90
20524;DHT22;10420;48.542;12.270;2023-04-25T19:44:15;7.90;99.90
20524;DHT22;10420;48.542;12.270;2023-04-25T19:49:15;7.90;99.90
20524;DHT22;10420;48.542;12.270;2023-04-25T19:54:16;7.90;99.90
20524;DHT22;10420;48.542;12.270;2023-04-25T19:59:17;7.70;99.90
20524;DHT22;10420;48.542;12.270;2023-04-25T20:04:17;7.50;99.90
20524;DHT22;10420;48.542;12.270;2023-04-25T20:09:18;7.30;99.90
20524;DHT22;10420;48.542;12.270;2023-04-25T20:14:20;7.30;99.90
20524;DHT22;10420;48.542;12.270;2023-04-25T20:19:21;7.10;99.90
20524;DHT22;10420;48.542;12.270;2023-04-25T20:24:22;7.00;99.90
20524;DHT22;10420;48.542;12.270;2023-04-25T20:29:25;6.90;99.90
20524;DHT22;10420;48.542;12.270;2023-04-25T20:34:25;6.60;99.90
20524;DHT22;10420;48.542;12.270;2023-04-25T20:39:29;6.70;99.90
20524;DHT22;10420;48.542;12.270;2023-04-25T20:44:29;6.80;99.90
20524;DHT22;10420;48.542;12.270;2023-04-25T20:49:31;7.00;99.90
20524;DHT22;10420;48.542;12.270;2023-04-25T20:54:32;7.00;99.90
20524;DHT22;10420;48.542;12.270;2023-04-25T20:59:33;7.20;99.90
20524;DHT22;10420;48.542;12.270;2023-04-25T21:04:33;7.30;99.90
20524;DHT22;10420;48.542;12.270;2023-04-25T21:09:34;7.30;99.90
20524;DHT22;10420;48.542;12.270;2023-04-25T21:14:34;7.30;99.90
20524;DHT22;10420;48.542;12.270;2023-04-25T21:19:35;7.30;99.90
20524;DHT22;10420;48.542;12.270;2023-04-25T21:24:36;7.30;99.90
20524;DHT22;10420;48.542;12.270;2023-04-25T21:29:37;7.20;99.90
20524;DHT22;10420;48.542;12.270;2023-04-25T21:34:37;7.30;99.90
20524;DHT22;10420;48.542;12.270;2023-04-25T21:39:38;7.30;99.90
20524;DHT22;10420;48.542;12.270;2023-04-25T21:44:38;7.40;99.90
20524;DHT22;10420;48.542;12.270;2023-04-25T21:49:39;7.30;99.90
20524;DHT22;10420;48.542;12.270;2023-04-25T21:54:40;7.20;99.90
20524;DHT22;10420;48.542;12.270;2023-04-25T21:59:41;7.30;99.90
20524;DHT22;10420;48.542;12.270;2023-04-25T22:04:42;7.20;99.90
20524;DHT22;10420;48.542;12.270;2023-04-25T22:09:44;7.20;99.90
20524;DHT22;10420;48.542;12.270;2023-04-25T22:14:45;7.20;99.90
20524;DHT22;10420;48.542;12.270;2023-04-25T22:19:46;7.10;99.90
20524;DHT22;10420;48.542;12.270;2023-04-25T22:24:47;7.20;99.90
20524;DHT22;10420;48.542;12.270;2023-04-25T22:29:49;7.10;99.90
20524;DHT22;10420;48.542;12.270;2023-04-25T22:34:49;7.10;99.90
20524;DHT22;10420;48.542;12.270;2023-04-25T22:39:50;7.10;99.90
20524;DHT22;10420;48.542;12.270;2023-04-25T22:44:52;7.10;99.90
20524;DHT22;10420;48.542;12.270;2023-04-25T22:49:53;7.00;99.90
20524;DHT22;10420;48.542;12.270;2023-04-25T22:54:53;7.10;99.90
20524;DHT22;10420;48.542;12.270;2023-04-25T22:59:56;7.10;99.90
20524;DHT22;10420;48.542;12.270;2023-04-25T23:04:57;7.10;99.90
20524;DHT22;10420;48.542;12.270;2023-04-25T23:09:59;7.20;99.90
20524;DHT22;10420;48.542;12.270;2023-04-25T23:15:00;7.10;99.90
20524;DHT22;10420;48.542;12.270;2023-04-25T23:20:02;7.10;99.90
20524;DHT22;10420;48.542;12.270;2023-04-25T23:25:07;6.80;99.90
20524;DHT22;10420;48.542;12.270;2023-04-25T23:30:08;6.60;99.90
20524;DHT22;10420;48.542;12.270;2023-04-25T23:35:09;6.50;99.90
20524;DHT22;10420;48.542;12.270;2023-04-25T23:40:10;6.20;99.90
20524;DHT22;10420;48.542;12.270;2023-04-25T23:45:11;6.30;99.90
20524;DHT22;10420;48.542;12.270;2023-04-25T23:50:13;6.40;99.90
20524;DHT22;10420;48.542;12.270;2023-04-25T23:55:14;6.20;99.90
